»·PEaware :: N2MZ KCMA-KVNY

N2MZ :: KCMA-KVNY

FLIGHT INFORMATION

Flight Status: Arrived
Operator: Privately registered:
United States
More flights under this callsign
Pilot: Mike Z. (25595)
Aircraft: CESSNA 172 SKYHAWK
(C172)
More flights by this aircraft type
Origin: KCMA Camarillo
United States
Destination: KVNY Van Nuys
United States
More flights between these airports :: More routes between these airports
Route: +CMA CMA072R GINNA
File this flight plan on PilotEdge
Remarks: TEC VTUP3
Altitude:
(Current/Filed)
6,000ft
Speed:
(Current/Filed)
110kts
Departed: 11-Oct-19 08:23 PM
Arrived: 11-Oct-19 08:54 PM
Distance/Time
Traveled:
30nm/0:31
Distance/Time
To Go:
Arrived

Flight Plot

Page will automatically refresh every two minutes.


Map Options




Map Legend


Flown Route
Filed Route
Departure Airport
Arrival Airport
Navaid (VOR, NDB)
Fix

Horizontal Profiles

Position Reports

Time Latitude Longitude Heading Altitude Ground
Speed
11-Oct-19 19:51 34.210350 -119.076468 0 79ft 0kts
11-Oct-19 19:52 34.210350 -119.076468 90 79ft 0kts
11-Oct-19 19:53 34.210350 -119.076468 90 79ft 0kts
11-Oct-19 19:54 34.210350 -119.076468 90 79ft 0kts
11-Oct-19 19:55 34.210350 -119.076468 90 79ft 0kts
11-Oct-19 19:56 34.210350 -119.076468 90 79ft 0kts
11-Oct-19 19:57 34.210350 -119.076468 90 79ft 0kts
11-Oct-19 19:58 34.210350 -119.076468 90 79ft 0kts
11-Oct-19 19:59 34.210350 -119.076468 90 79ft 0kts
11-Oct-19 20:00 34.210350 -119.076468 90 79ft 0kts
11-Oct-19 20:01 34.210350 -119.076468 90 79ft 0kts
11-Oct-19 20:02 34.210350 -119.076468 90 79ft 0kts
11-Oct-19 20:03 34.210350 -119.076468 90 79ft 0kts
11-Oct-19 20:04 34.210350 -119.076468 90 79ft 0kts
11-Oct-19 20:05 34.210350 -119.076468 90 79ft 0kts
11-Oct-19 20:06 34.210350 -119.076468 90 79ft 0kts
11-Oct-19 20:07 34.210547 -119.076263 25 79ft 0kts
11-Oct-19 20:08 34.210547 -119.076263 25 79ft 0kts
11-Oct-19 20:09 34.210547 -119.076263 25 79ft 0kts
11-Oct-19 20:10 34.210718 -119.076507 283 79ft 0kts
11-Oct-19 20:11 34.211028 -119.077525 267 79ft 0kts
11-Oct-19 20:12 34.210908 -119.081943 269 76ft 35kts
11-Oct-19 20:13 34.210925 -119.089680 272 69ft 11kts
11-Oct-19 20:14 34.211069 -119.100147 275 60ft 17kts
11-Oct-19 20:15 34.212850 -119.104254 40 60ft 0kts
11-Oct-19 20:16 34.212850 -119.104254 39 60ft 0kts
11-Oct-19 20:17 34.212850 -119.104254 40 60ft 0kts
11-Oct-19 20:18 34.212850 -119.104254 40 60ft 0kts
11-Oct-19 20:19 34.212989 -119.104112 359 60ft 0kts
11-Oct-19 20:20 34.212989 -119.104112 359 60ft 0kts
11-Oct-19 20:21 34.212989 -119.104112 359 60ft 0kts
11-Oct-19 20:22 34.213833 -119.099218 90 67ft 69kts
11-Oct-19 20:23 34.210960 -119.074148 152 888ft 84kts
11-Oct-19 20:24 34.196236 -119.096176 245 1691ft 90kts
11-Oct-19 20:25 34.184319 -119.121898 243 2483ft 88kts
11-Oct-19 20:26 34.172031 -119.146658 239 3233ft 85kts
11-Oct-19 20:27 34.159642 -119.171308 244 3906ft 85kts
11-Oct-19 20:28 34.161082 -119.187195 55 4504ft 77kts
11-Oct-19 20:29 34.171934 -119.164092 55 4976ft 96kts
11-Oct-19 20:30 34.189525 -119.134361 55 4969ft 115kts
11-Oct-19 20:31 34.206904 -119.103905 52 5002ft 111kts
11-Oct-19 20:32 34.214431 -119.070088 85 4975ft 104kts
11-Oct-19 20:33 34.215653 -119.034923 82 5033ft 102kts
11-Oct-19 20:34 34.217673 -119.000594 91 5071ft 103kts
11-Oct-19 20:35 34.221059 -118.965650 83 5025ft 107kts
11-Oct-19 20:36 34.223997 -118.929704 87 5043ft 106kts
11-Oct-19 20:37 34.224903 -118.893707 87 5036ft 107kts
11-Oct-19 20:38 34.226667 -118.857524 92 5028ft 108kts
11-Oct-19 20:39 34.225106 -118.820893 90 4970ft 109kts
11-Oct-19 20:40 34.224429 -118.783160 101 4593ft 123kts
11-Oct-19 20:41 34.222180 -118.743134 91 4065ft 116kts
11-Oct-19 20:42 34.221215 -118.707251 93 3532ft 99kts
11-Oct-19 20:43 34.219498 -118.680870 73 3279ft 54kts
11-Oct-19 20:44 34.221193 -118.656591 91 3561ft 82kts
11-Oct-19 20:45 34.220108 -118.631706 91 3429ft 77kts
11-Oct-19 20:46 34.219170 -118.604392 85 3458ft 76kts
11-Oct-19 20:47 34.219044 -118.577036 94 3232ft 88kts
11-Oct-19 20:48 34.234484 -118.566521 1 2903ft 76kts
11-Oct-19 20:49 34.243838 -118.551496 96 2736ft 113kts
11-Oct-19 20:50 34.245337 -118.517377 69 2436ft 95kts
11-Oct-19 20:51 34.233579 -118.494113 158 1634ft 91kts
11-Oct-19 20:52 34.209796 -118.490423 176 806ft 65kts
11-Oct-19 20:53 34.203601 -118.490778 195 806ft 0kts
11-Oct-19 20:54 34.203501 -118.490810 194 806ft 0kts
11-Oct-19 20:55 34.203500 -118.490810 195 806ft 0kts
11-Oct-19 20:56 34.210434 -118.491599 355 806ft 41kts
11-Oct-19 20:57 34.216544 -118.493628 267 806ft 0kts
11-Oct-19 20:58 34.216544 -118.493629 267 806ft 0kts

Navigation Log

Ident Type
Flight plan parsing failed, navigation log unavailable